Time;durP1;ratioP1;P1;durP2;ratioP2;P2;SDS_P1;SDS_P2;PMS_P1;PMS_P2;Temp;Humidity;BMP_temperature;BMP_pressure;BME280_temperature;BME280_humidity;BME280_pressure;Samples;Min_cycle;Max_cycle;Signal;HPM_P1;HPM_P2
2022/07/24 00:01:44;;;;;;;2.50;1.30;;;;;;;15.64;64.08;101249.97;5035502;28;20045;-85
2022/07/24 00:04:12;;;;;;;3.78;1.30;;;;;;;15.60;64.23;101254.63;5056413;28;20098;-85
2022/07/24 00:06:39;;;;;;;2.25;1.10;;;;;;;15.57;64.39;101248.66;5055475;28;20025;-82
2022/07/24 00:09:06;;;;;;;4.15;1.52;;;;;;;15.54;64.73;101251.56;5038117;28;20044;-82
2022/07/24 00:11:35;;;;;;;4.13;1.63;;;;;;;15.52;64.35;101253.44;5073586;28;20029;-81
2022/07/24 00:14:03;;;;;;;5.53;1.23;;;;;;;15.51;64.63;101254.41;5043963;28;20049;-82
2022/07/24 00:16:30;;;;;;;2.92;1.33;;;;;;;15.49;65.11;101253.66;5054400;28;20071;-83
2022/07/24 00:18:58;;;;;;;1.75;1.02;;;;;;;15.46;64.44;101257.38;5044320;28;20037;-82
2022/07/24 00:21:26;;;;;;;3.47;1.33;;;;;;;15.43;64.95;101250.47;5053516;28;20143;-81
2022/07/24 00:23:53;;;;;;;2.83;0.98;;;;;;;15.42;64.99;101255.91;5057239;28;20034;-82
2022/07/24 00:26:20;;;;;;;3.38;1.27;;;;;;;15.42;65.01;101255.91;5042167;28;20062;-83
2022/07/24 00:28:50;;;;;;;3.65;1.15;;;;;;;15.40;65.17;101260.44;5040184;28;20099;-84
2022/07/24 00:31:17;;;;;;;2.70;1.00;;;;;;;15.38;64.90;101265.03;5055267;28;20072;-85
2022/07/24 00:33:45;;;;;;;3.97;1.27;;;;;;;15.38;64.82;101271.16;5027527;28;20055;-86
2022/07/24 00:36:13;;;;;;;2.22;1.33;;;;;;;15.37;65.24;101269.47;5046928;28;20088;-86
2022/07/24 00:38:40;;;;;;;1.95;1.38;;;;;;;15.36;64.94;101269.59;5045705;28;20054;-85
2022/07/24 00:41:07;;;;;;;4.03;1.30;;;;;;;15.34;65.42;101280.28;5023017;28;20052;-86
2022/07/24 00:43:34;;;;;;;2.80;1.23;;;;;;;15.32;65.47;101268.09;5035448;28;20133;-85
2022/07/24 00:46:02;;;;;;;5.57;1.40;;;;;;;15.31;65.66;101271.69;5022788;28;20088;-86
2022/07/24 00:48:31;;;;;;;4.57;1.25;;;;;;;15.28;66.37;101274.56;5030413;28;20090;-86
2022/07/24 00:50:58;;;;;;;1.50;0.98;;;;;;;15.25;65.61;101274.78;5044293;28;20478;-84
2022/07/24 00:53:25;;;;;;;4.57;1.40;;;;;;;15.24;65.33;101273.91;5050680;28;20562;-84
2022/07/24 00:55:53;;;;;;;2.22;1.08;;;;;;;15.20;66.33;101275.94;5034230;28;20053;-86
2022/07/24 00:58:21;;;;;;;4.40;1.13;;;;;;;15.19;66.51;101282.19;5042200;28;20530;-84
2022/07/24 01:00:48;;;;;;;3.03;1.27;;;;;;;15.15;66.46;101272.75;5050087;28;20053;-83
2022/07/24 01:03:15;;;;;;;2.88;0.98;;;;;;;15.13;65.98;101279.09;5056374;28;20053;-83
2022/07/24 01:05:44;;;;;;;3.85;1.40;;;;;;;15.09;66.64;101278.47;5043401;28;20052;-83
2022/07/24 01:08:11;;;;;;;3.38;1.58;;;;;;;15.08;66.45;101279.41;5056208;28;20057;-84
2022/07/24 01:10:40;;;;;;;4.10;1.40;;;;;;;15.05;66.04;101284.94;5039356;28;20112;-88
2022/07/24 01:13:09;;;;;;;3.50;1.30;;;;;;;15.05;66.48;101279.63;5038553;28;20061;-86
2022/07/24 01:15:36;;;;;;;3.80;1.15;;;;;;;15.04;66.60;101288.53;5023120;28;20520;-85
2022/07/24 01:18:03;;;;;;;2.45;1.20;;;;;;;15.03;67.00;101286.81;5027182;28;20111;-86
2022/07/24 01:20:36;;;;;;;4.25;1.17;;;;;;;15.02;66.87;101287.78;5044332;28;20041;-85
2022/07/24 01:23:03;;;;;;;2.05;1.05;;;;;;;15.02;66.73;101287.78;5032548;28;20155;-83
2022/07/24 01:25:30;;;;;;;2.88;1.08;;;;;;;15.03;66.96;101286.81;5028856;28;20064;-87
2022/07/24 01:27:58;;;;;;;2.55;1.17;;;;;;;15.02;67.34;101285.13;5049121;28;20084;-85
2022/07/24 01:30:25;;;;;;;7.13;1.40;;;;;;;15.01;67.35;101283.44;5037862;28;20117;-84
2022/07/24 01:32:52;;;;;;;3.72;1.30;;;;;;;15.01;67.25;101279.94;5042907;28;20042;-85
2022/07/24 01:35:20;;;;;;;3.33;1.10;;;;;;;14.99;67.16;101279.19;5050229;28;20063;-84
2022/07/24 01:37:53;;;;;;;2.60;1.17;;;;;;;14.97;67.45;101281.09;5032802;28;20056;-85
2022/07/24 01:40:21;;;;;;;2.78;1.13;;;;;;;14.94;67.45;101282.97;5043269;28;20058;-84
2022/07/24 01:42:48;;;;;;;2.72;0.95;;;;;;;14.93;67.54;101280.44;5013707;28;20064;-84
2022/07/24 01:45:16;;;;;;;2.28;1.10;;;;;;;14.91;67.88;101291.16;5045178;28;20200;-88
2022/07/24 01:47:43;;;;;;;2.85;1.27;;;;;;;14.90;68.07;101284.16;5031106;28;20236;-85
2022/07/24 01:50:12;;;;;;;2.33;1.23;;;;;;;14.89;69.73;101290.41;5053367;28;20080;-84
2022/07/24 01:52:39;;;;;;;1.35;1.00;;;;;;;14.88;68.78;101291.34;5018466;28;20081;-82
2022/07/24 01:55:07;;;;;;;5.22;1.65;;;;;;;14.90;69.72;101293.88;5072172;28;20053;-83
2022/07/24 01:57:35;;;;;;;2.30;1.40;;;;;;;14.88;69.43;101298.47;5044024;28;20116;-83
2022/07/24 02:00:08;;;;;;;6.75;1.55;;;;;;;14.88;69.59;101296.66;5047061;28;20050;-84
2022/07/24 02:02:37;;;;;;;2.67;1.70;;;;;;;14.86;69.68;101298.56;5040957;28;20054;-85
2022/07/24 02:05:05;;;;;;;5.03;1.45;;;;;;;14.84;70.21;101295.16;5042710;28;20053;-84
2022/07/24 02:07:33;;;;;;;2.55;1.20;;;;;;;14.84;69.80;101294.31;5048609;28;20832;-85
2022/07/24 02:10:00;;;;;;;2.40;1.30;;;;;;;14.84;69.81;101296.97;5031472;28;20060;-86
2022/07/24 02:12:27;;;;;;;1.77;1.45;;;;;;;14.82;70.77;101290.94;5027126;28;20371;-86
2022/07/24 02:14:54;;;;;;;5.07;1.30;;;;;;;14.77;70.45;101296.53;5024839;28;20057;-87
2022/07/24 02:17:22;;;;;;;3.53;1.48;;;;;;;14.75;70.92;101293.13;5048589;28;20068;-85
2022/07/24 02:19:49;;;;;;;5.15;1.08;;;;;;;14.75;70.54;101300.22;5037271;28;20453;-82
2022/07/24 02:22:16;;;;;;;6.72;1.33;;;;;;;14.74;70.47;101303.81;5057554;28;20053;-85
2022/07/24 02:24:44;;;;;;;2.10;1.30;;;;;;;14.72;70.50;101297.75;5045214;28;20120;-84
2022/07/24 02:27:11;;;;;;;3.33;1.27;;;;;;;14.67;70.51;101292.75;5041543;28;20057;-86
2022/07/24 02:29:39;;;;;;;2.58;1.40;;;;;;;14.65;70.53;101298.16;5025948;28;20134;-83
2022/07/24 02:32:07;;;;;;;3.75;1.40;;;;;;;14.62;70.44;101287.75;5045815;28;20061;-85
2022/07/24 02:34:35;;;;;;;2.67;1.17;;;;;;;14.61;70.86;101301.13;5048677;28;20068;-83
2022/07/24 02:37:02;;;;;;;9.05;1.17;;;;;;;14.58;70.32;101296.00;5028143;28;20148;-84
2022/07/24 02:39:29;;;;;;;2.25;1.20;;;;;;;14.55;70.33;101297.06;5029538;28;20060;-86
2022/07/24 02:41:56;;;;;;;4.80;1.45;;;;;;;14.54;70.50;101297.16;5044007;28;20077;-84
2022/07/24 02:44:24;;;;;;;2.28;1.13;;;;;;;14.51;70.46;101295.56;5049359;28;20564;-84
2022/07/24 02:50:58;;;;;;;2.17;1.05;;;;;;;14.44;70.37;101300.38;5042289;28;20091;-85
2022/07/24 02:53:25;;;;;;;5.88;1.10;;;;;;;14.43;71.73;101305.78;5042264;28;20522;-86
2022/07/24 02:55:53;;;;;;;3.83;1.48;;;;;;;14.40;71.89;101314.75;5047430;28;20051;-82
2022/07/24 02:58:20;;;;;;;6.07;1.15;;;;;;;14.37;71.92;101309.69;5035248;28;20046;-85
2022/07/24 03:00:47;;;;;;;2.75;1.08;;;;;;;14.37;71.59;101307.03;5045474;28;20067;-85
2022/07/24 03:03:15;;;;;;;2.25;1.23;;;;;;;14.37;71.76;101316.78;5029659;28;20069;-85
2022/07/24 03:05:42;;;;;;;3.35;1.02;;;;;;;14.36;71.37;101313.28;5040769;28;20120;-85
2022/07/24 03:08:09;;;;;;;4.47;1.38;;;;;;;14.34;71.32;101314.31;5048339;28;20049;-84
2022/07/24 03:10:37;;;;;;;2.38;1.30;;;;;;;14.33;71.33;101324.06;5028784;28;20117;-84
2022/07/24 03:13:08;;;;;;;3.10;1.55;;;;;;;14.31;71.47;101314.50;5027262;28;20136;-86
2022/07/24 03:15:36;;;;;;;3.28;1.30;;;;;;;14.32;71.16;101313.53;5037230;28;20045;-85
2022/07/24 03:18:04;;;;;;;3.78;1.00;;;;;;;14.32;71.46;101321.50;5040299;28;20072;-84
2022/07/24 03:20:44;;;;;;;2.38;1.33;;;;;;;14.32;71.20;101324.13;5043253;28;20517;-83
2022/07/24 03:23:11;;;;;;;2.72;1.55;;;;;;;14.30;71.77;101321.59;5031093;28;20029;-82
2022/07/24 03:25:38;;;;;;;5.50;1.58;;;;;;;14.31;72.32;101327.75;5055218;28;20109;-82
2022/07/24 03:28:06;;;;;;;4.40;1.20;;;;;;;14.30;72.37;101331.34;5051634;28;20053;-83
2022/07/24 03:30:33;;;;;;;2.97;1.20;;;;;;;14.27;72.20;101334.19;5049427;28;20100;-87
2022/07/24 03:33:00;;;;;;;5.65;1.98;;;;;;;14.25;73.06;101333.44;5049059;28;20457;-85
2022/07/24 03:35:27;;;;;;;4.25;1.50;;;;;;;14.27;72.53;101342.13;5046215;28;20068;-85
2022/07/24 03:37:54;;;;;;;4.65;1.80;;;;;;;14.28;72.27;101336.75;5031448;28;20041;-85
2022/07/24 03:40:22;;;;;;;3.45;1.25;;;;;;;14.28;72.05;101338.53;5050710;28;20053;-83
2022/07/24 03:42:49;;;;;;;3.67;1.30;;;;;;;14.31;72.52;101335.69;5062588;28;20041;-85
2022/07/24 03:45:16;;;;;;;3.25;1.15;;;;;;;14.35;72.62;101339.84;5042352;28;20045;-85
2022/07/24 03:47:44;;;;;;;4.45;1.83;;;;;;;14.38;72.28;101337.00;5011693;28;20493;-84
2022/07/24 03:50:11;;;;;;;3.20;1.23;;;;;;;14.44;71.83;101341.91;5030304;28;20077;-83
2022/07/24 03:52:42;;;;;;;2.10;1.50;;;;;;;14.43;71.91;101346.34;5038316;28;20061;-87
2022/07/24 03:55:13;;;;;;;2.00;1.30;;;;;;;14.42;71.83;101346.47;5030125;28;20103;-86
2022/07/24 03:57:40;;;;;;;2.97;1.20;;;;;;;14.46;71.85;101352.44;5025224;28;20061;-84
2022/07/24 04:00:09;;;;;;;6.55;1.67;;;;;;;14.48;71.41;101348.75;5051370;28;20056;-85
2022/07/24 04:02:36;;;;;;;3.83;1.63;;;;;;;14.52;71.78;101350.25;5050025;28;20054;-85
2022/07/24 04:05:03;;;;;;;2.63;1.40;;;;;;;14.49;71.34;101353.09;5029709;28;20071;-86
2022/07/24 04:07:31;;;;;;;4.32;1.58;;;;;;;14.53;72.04;101345.81;5049852;28;20057;-86
2022/07/24 04:09:58;;;;;;;3.83;1.73;;;;;;;14.59;71.38;101350.69;5052619;28;20129;-84
2022/07/24 04:12:26;;;;;;;4.70;1.75;;;;;;;14.60;71.50;101347.97;5029650;28;20136;-85
2022/07/24 04:14:53;;;;;;;4.95;1.67;;;;;;;14.64;71.20;101345.97;5039454;28;20063;-84
2022/07/24 04:17:20;;;;;;;2.03;1.30;;;;;;;14.66;71.42;101346.72;5048694;28;20256;-85
2022/07/24 04:19:47;;;;;;;3.78;1.70;;;;;;;14.74;71.19;101347.06;5037472;28;20077;-85
2022/07/24 04:22:14;;;;;;;2.75;1.15;;;;;;;14.78;71.06;101348.59;5050680;28;20761;-85
2022/07/24 04:24:42;;;;;;;4.75;1.90;;;;;;;14.83;70.97;101354.44;5025169;28;20094;-86
2022/07/24 04:27:09;;;;;;;2.80;1.70;;;;;;;14.85;70.51;101349.88;5034337;28;20056;-86
2022/07/24 04:29:36;;;;;;;1.60;1.15;;;;;;;14.88;70.78;101356.78;5033705;28;20049;-84
2022/07/24 04:32:04;;;;;;;5.28;1.30;;;;;;;14.91;70.40;101360.09;5046137;28;20120;-85
2022/07/24 04:34:31;;;;;;;2.63;1.23;;;;;;;14.96;70.20;101343.88;5042652;28;20045;-84
2022/07/24 04:36:59;;;;;;;2.92;1.30;;;;;;;15.01;70.14;101355.03;5048831;28;20055;-85
2022/07/24 04:39:26;;;;;;;2.47;1.10;;;;;;;15.00;69.86;101352.50;5029629;28;20067;-86
2022/07/24 04:41:54;;;;;;;5.50;1.80;;;;;;;15.02;70.04;101353.22;5032946;28;20369;-84
2022/07/24 04:44:21;;;;;;;2.63;1.20;;;;;;;15.06;69.72;101349.41;5049937;28;20136;-87
2022/07/24 04:46:48;;;;;;;5.80;1.50;;;;;;;15.07;69.94;101357.25;5043519;28;20041;-86
2022/07/24 04:49:16;;;;;;;6.20;1.33;;;;;;;15.10;69.63;101364.19;5048458;28;20038;-86
2022/07/24 04:51:43;;;;;;;3.88;1.15;;;;;;;15.07;69.76;101367.03;5036640;28;20071;-85
2022/07/24 04:54:10;;;;;;;2.72;1.30;;;;;;;15.06;69.91;101366.19;5045536;28;20081;-86
2022/07/24 04:56:38;;;;;;;3.83;1.10;;;;;;;15.07;69.67;101370.53;5046511;28;20164;-83
2022/07/24 04:59:05;;;;;;;3.15;1.13;;;;;;;15.12;69.41;101359.63;5039994;28;20060;-85
2022/07/24 05:01:33;;;;;;;2.25;1.25;;;;;;;15.16;69.43;101361.97;5048564;28;20071;-87
2022/07/24 05:04:00;;;;;;;2.60;1.35;;;;;;;15.30;69.01;101355.72;5042364;28;20100;-86
2022/07/24 05:06:28;;;;;;;2.10;1.25;;;;;;;15.37;68.48;101365.00;5049104;28;20140;-88
2022/07/24 05:08:56;;;;;;;3.83;1.23;;;;;;;15.37;68.07;101361.50;5046718;28;20059;-86
2022/07/24 05:11:23;;;;;;;8.15;1.40;;;;;;;15.32;68.54;101359.16;5046906;28;20107;-86
2022/07/24 05:13:50;;;;;;;2.47;1.20;;;;;;;15.38;68.14;101352.56;5045834;28;20058;-86
2022/07/24 05:16:18;;;;;;;2.35;0.88;;;;;;;15.48;68.21;101347.50;5009897;28;20332;-85
2022/07/24 05:18:45;;;;;;;3.28;1.10;;;;;;;15.49;68.03;101354.47;5050330;28;20064;-83
2022/07/24 05:21:14;;;;;;;5.10;1.20;;;;;;;15.59;67.93;101350.28;5034593;28;20057;-83
2022/07/24 05:23:43;;;;;;;4.18;1.05;;;;;;;15.62;67.40;101353.53;5077493;28;20096;-83
2022/07/24 05:26:10;;;;;;;4.05;1.15;;;;;;;15.58;67.37;101359.16;5060639;28;20028;-83
2022/07/24 05:28:37;;;;;;;3.58;1.20;;;;;;;15.69;67.27;101354.03;5061747;28;20042;-82
2022/07/24 05:31:05;;;;;;;2.85;1.20;;;;;;;15.82;66.97;101359.34;5053050;28;20083;-84
2022/07/24 05:33:32;;;;;;;1.90;0.90;;;;;;;15.89;66.53;101364.09;5026735;28;20049;-85
2022/07/24 05:35:59;;;;;;;2.03;0.80;;;;;;;15.94;66.06;101351.38;5047217;28;20092;-85
2022/07/24 05:38:26;;;;;;;1.65;0.80;;;;;;;15.93;65.88;101360.28;5027867;28;20057;-84
2022/07/24 05:40:55;;;;;;;4.20;1.10;;;;;;;15.88;66.06;101364.22;5031154;28;20049;-84
2022/07/24 05:43:22;;;;;;;2.97;1.00;;;;;;;15.94;65.59;101358.50;5043942;28;20050;-86
2022/07/24 05:45:52;;;;;;;2.55;0.90;;;;;;;16.03;64.97;101355.19;5028717;28;20046;-85
2022/07/24 05:48:21;;;;;;;5.97;1.00;;;;;;;16.05;64.96;101352.41;5027330;28;20053;-84
2022/07/24 05:50:48;;;;;;;2.90;0.90;;;;;;;16.06;64.52;101354.97;5017188;28;20111;-86
2022/07/24 05:53:15;;;;;;;3.28;1.05;;;;;;;16.08;64.43;101349.56;5046785;28;20043;-85
2022/07/24 05:55:43;;;;;;;1.70;0.85;;;;;;;16.15;64.23;101353.47;5026205;28;20644;-84
2022/07/24 05:58:12;;;;;;;1.23;0.90;;;;;;;16.17;63.97;101347.09;5048729;28;20045;-84
2022/07/24 06:00:39;;;;;;;3.53;1.05;;;;;;;16.18;63.79;101345.28;5027535;28;20056;-86
2022/07/24 06:03:07;;;;;;;2.30;0.95;;;;;;;16.26;64.01;101352.72;5030899;28;20060;-84
2022/07/24 06:05:34;;;;;;;2.90;1.08;;;;;;;16.43;63.78;101353.19;5029732;28;20092;-85
2022/07/24 06:08:02;;;;;;;1.80;0.77;;;;;;;16.54;63.25;101356.91;5048080;28;20058;-86
2022/07/24 06:10:29;;;;;;;4.75;1.20;;;;;;;16.58;62.84;101356.56;5022412;28;20046;-88
2022/07/24 06:12:56;;;;;;;3.05;0.80;;;;;;;16.60;62.66;101362.59;5041845;28;20462;-84
2022/07/24 06:15:24;;;;;;;3.28;0.80;;;;;;;16.68;62.78;101362.91;5027155;28;20832;-86
2022/07/24 06:17:51;;;;;;;4.95;0.80;;;;;;;16.71;62.03;101360.03;5006252;28;20049;-85
2022/07/24 06:20:25;;;;;;;2.08;1.00;;;;;;;16.74;62.26;101355.47;5044592;28;20029;-86
2022/07/24 06:22:55;;;;;;;5.68;1.10;;;;;;;16.79;62.23;101359.47;5022722;28;20117;-85
2022/07/24 06:25:26;;;;;;;1.45;0.75;;;;;;;16.98;61.70;101359.00;5019454;28;20042;-84
2022/07/24 06:27:55;;;;;;;2.83;0.90;;;;;;;17.15;61.54;101365.69;5028333;28;20044;-85
2022/07/24 06:30:25;;;;;;;3.00;0.95;;;;;;;17.08;61.38;101365.31;5036393;28;20092;-86
2022/07/24 06:32:58;;;;;;;5.53;1.27;;;;;;;17.20;60.91;101356.44;5034152;28;20052;-87
2022/07/24 06:35:27;;;;;;;2.50;1.10;;;;;;;17.21;60.56;101362.59;5023857;28;20049;-86
2022/07/24 06:37:58;;;;;;;5.28;1.05;;;;;;;17.10;60.58;101362.53;5041799;28;20505;-87
2022/07/24 06:40:25;;;;;;;7.25;1.42;;;;;;;17.15;60.47;101358.56;5021909;28;20536;-84
2022/07/24 06:42:53;;;;;;;2.08;0.77;;;;;;;17.09;61.09;101355.53;5020705;28;20080;-86
2022/07/24 06:45:20;;;;;;;2.67;0.88;;;;;;;17.12;61.05;101360.63;5038929;28;20044;-85
2022/07/24 06:47:50;;;;;;;2.80;0.93;;;;;;;17.16;61.42;101354.13;5036404;28;20045;-86
2022/07/24 06:50:17;;;;;;;3.25;1.27;;;;;;;17.20;61.22;101358.22;5039318;28;20497;-86
2022/07/24 06:52:45;;;;;;;5.07;1.35;;;;;;;17.27;60.66;101363.94;5034377;28;20042;-86
2022/07/24 06:55:12;;;;;;;2.28;0.80;;;;;;;17.37;60.23;101371.09;5036897;28;20049;-86
2022/07/24 06:57:40;;;;;;;3.00;1.00;;;;;;;17.40;60.46;101362.91;5043180;28;20120;-84
2022/07/24 07:00:09;;;;;;;3.90;1.45;;;;;;;17.45;60.27;101358.06;5040969;28;20292;-85
2022/07/24 07:02:36;;;;;;;3.60;1.33;;;;;;;17.55;60.19;101350.22;5042875;28;20056;-86
2022/07/24 07:05:05;;;;;;;3.45;1.15;;;;;;;17.67;60.15;101367.09;5039446;28;20140;-86
2022/07/24 07:07:34;;;;;;;2.90;0.93;;;;;;;17.77;59.56;101364.59;5041521;28;20478;-86
2022/07/24 07:10:03;;;;;;;3.78;1.38;;;;;;;17.75;59.23;101362.06;5045535;28;20432;-84
2022/07/24 07:12:30;;;;;;;2.03;1.10;;;;;;;17.89;58.61;101377.81;5021796;28;20453;-85
2022/07/24 07:15:06;;;;;;;5.07;0.95;;;;;;;18.03;58.23;101365.22;5042053;28;20474;-84
2022/07/24 07:17:33;;;;;;;8.18;0.90;;;;;;;17.94;57.30;101362.31;5021973;28;20466;-85
2022/07/24 07:20:01;;;;;;;3.92;1.10;;;;;;;18.07;56.78;101364.88;5037441;28;20041;-85
2022/07/24 07:22:29;;;;;;;2.90;0.90;;;;;;;18.08;56.18;101373.69;5046303;28;20056;-86
2022/07/24 07:24:56;;;;;;;2.65;1.00;;;;;;;18.22;55.98;101371.63;5047217;28;20053;-86
2022/07/24 07:27:23;;;;;;;4.13;1.00;;;;;;;18.26;56.57;101364.25;5045781;28;20517;-85
2022/07/24 07:29:51;;;;;;;3.20;0.90;;;;;;;18.34;56.36;101367.16;5035355;28;20249;-84
2022/07/24 07:32:18;;;;;;;5.28;0.95;;;;;;;18.51;55.44;101357.81;5063561;28;20049;-84
2022/07/24 07:34:51;;;;;;;3.67;1.25;;;;;;;18.68;54.80;101359.94;5010168;28;20042;-85
2022/07/24 07:37:20;;;;;;;3.45;0.95;;;;;;;18.79;54.82;101363.59;5025687;28;20476;-84
2022/07/24 07:39:49;;;;;;;2.28;1.05;;;;;;;18.91;54.58;101360.78;5025847;28;20041;-84
2022/07/24 07:42:21;;;;;;;1.52;1.05;;;;;;;18.91;54.54;101351.91;5039870;28;20041;-86
2022/07/24 07:44:51;;;;;;;3.35;1.00;;;;;;;19.07;54.35;101360.34;5029579;28;20045;-83
2022/07/24 07:47:19;;;;;;;2.28;0.95;;;;;;;19.20;53.22;101361.00;5045515;28;20049;-82
2022/07/24 07:49:46;;;;;;;3.85;1.10;;;;;;;19.28;53.10;101351.53;5039963;28;20572;-84
2022/07/24 07:52:13;;;;;;;2.25;0.90;;;;;;;19.31;52.55;101359.25;5033769;28;20056;-82
2022/07/24 07:54:41;;;;;;;3.30;1.13;;;;;;;19.43;52.44;101348.41;5050832;28;20253;-82
2022/07/24 07:57:08;;;;;;;1.42;0.70;;;;;;;19.38;50.69;101353.28;5034611;28;20098;-85
2022/07/24 07:59:35;;;;;;;2.75;0.85;;;;;;;19.51;50.14;101357.59;5043989;28;20140;-84
2022/07/24 08:02:04;;;;;;;1.95;0.90;;;;;;;19.54;49.48;101349.28;5042157;28;20073;-85
2022/07/24 08:04:35;;;;;;;3.50;1.10;;;;;;;19.34;49.24;101346.50;5050848;28;20049;-82
2022/07/24 08:07:06;;;;;;;1.50;0.70;;;;;;;19.51;49.65;101352.25;5047181;28;20057;-82
2022/07/24 08:09:38;;;;;;;1.55;1.00;;;;;;;19.71;48.81;101346.91;5038043;28;20029;-83
2022/07/24 08:12:07;;;;;;;3.40;0.95;;;;;;;19.76;49.25;101357.19;5026814;28;20049;-82
2022/07/24 08:14:44;;;;;;;2.63;1.03;;;;;;;19.96;48.58;101355.50;5044927;28;20063;-83
2022/07/24 08:17:12;;;;;;;2.20;0.90;;;;;;;20.03;47.71;101345.94;5028201;28;20365;-85
2022/07/24 08:19:45;;;;;;;6.53;1.10;;;;;;;19.94;47.62;101352.09;5008966;28;20078;-84
2022/07/24 08:22:16;;;;;;;2.08;0.95;;;;;;;19.84;48.19;101352.03;5026715;28;20050;-85
2022/07/24 08:24:48;;;;;;;2.85;0.80;;;;;;;20.00;47.86;101343.56;5042804;28;20121;-85
2022/07/24 08:27:15;;;;;;;2.70;0.77;;;;;;;20.12;48.09;101339.78;5009502;28;20048;-85
2022/07/24 08:29:44;;;;;;;3.25;0.85;;;;;;;20.19;48.34;101351.66;5054012;28;20064;-85
2022/07/24 08:32:15;;;;;;;1.33;0.70;;;;;;;20.41;48.18;101339.91;5048802;28;20068;-85
2022/07/24 08:34:43;;;;;;;3.33;0.98;;;;;;;20.57;46.23;101343.91;5007673;28;20057;-85
2022/07/24 08:37:12;;;;;;;1.27;0.95;;;;;;;20.71;46.29;101354.19;5042256;28;20080;-86
2022/07/24 08:39:40;;;;;;;1.70;0.68;;;;;;;20.83;46.02;101349.56;5032101;28;20412;-84
2022/07/24 08:42:10;;;;;;;1.23;0.60;;;;;;;20.88;45.78;101342.81;5037867;28;20053;-84
2022/07/24 08:44:38;;;;;;;3.25;1.00;;;;;;;20.77;46.29;101340.28;5009701;28;20108;-85
2022/07/24 08:47:08;;;;;;;2.88;0.80;;;;;;;20.97;45.51;101341.13;5041755;28;20042;-84
2022/07/24 08:49:36;;;;;;;4.10;0.90;;;;;;;20.98;44.62;101338.34;5030698;28;20045;-84
2022/07/24 08:52:08;;;;;;;1.50;0.85;;;;;;;20.87;44.76;101335.78;5025553;28;20040;-84
2022/07/24 08:54:36;;;;;;;1.27;0.68;;;;;;;20.98;43.75;101338.34;5029533;28;20061;-84
2022/07/24 08:57:06;;;;;;;2.35;0.90;;;;;;;21.03;43.21;101340.59;5044535;28;20068;-83
2022/07/24 08:59:34;;;;;;;2.20;0.82;;;;;;;21.14;43.67;101336.91;5009816;28;20061;-84
2022/07/24 09:02:02;;;;;;;1.55;0.77;;;;;;;21.38;42.55;101333.81;5044554;28;20068;-85
2022/07/24 09:04:37;;;;;;;0.85;0.75;;;;;;;21.55;42.86;101330.41;5031649;28;20052;-82
2022/07/24 09:07:24;;;;;;;21.35;1.30;;;;;;;21.60;42.87;101335.31;5039983;28;20367;-83
2022/07/24 09:10:06;;;;;;;1.30;0.68;;;;;;;21.67;41.67;101331.94;5074959;28;20024;-84
2022/07/24 09:12:44;;;;;;;2.47;0.52;;;;;;;21.81;40.51;101340.50;5044614;22;20128;-56
2022/07/24 09:15:15;;;;;;;1.48;0.70;;;;;;;21.76;40.22;101343.63;5030161;28;20374;-58
2022/07/24 09:17:52;;;;;;;2.40;0.60;;;;;;;21.77;39.85;101345.28;5024592;28;20046;-59
2022/07/24 09:20:22;;;;;;;2.35;0.90;;;;;;;21.83;40.28;101342.03;5051929;28;20184;-60
2022/07/24 09:22:50;;;;;;;1.73;1.05;;;;;;;22.07;40.43;101335.31;5032913;28;20053;-60
2022/07/24 09:25:22;;;;;;;3.58;1.23;;;;;;;22.21;40.12;101337.53;5025667;28;20152;-58
2022/07/24 09:27:55;;;;;;;2.55;0.80;;;;;;;22.37;40.47;101336.88;5032689;28;20469;-59
2022/07/24 09:30:31;;;;;;;3.38;0.90;;;;;;;22.46;40.67;101336.81;5032735;28;20666;-60
2022/07/24 09:33:06;;;;;;;3.78;0.93;;;;;;;22.54;40.72;101341.44;5035135;28;20064;-57
2022/07/24 09:35:38;;;;;;;1.90;0.93;;;;;;;22.68;38.75;101337.41;5029734;28;20060;-58
2022/07/24 09:38:08;;;;;;;1.33;0.70;;;;;;;22.38;39.66;101333.19;5024558;28;20057;-59
2022/07/24 09:40:37;;;;;;;3.47;1.13;;;;;;;22.38;40.44;101335.88;5031328;28;20049;-59
2022/07/24 09:43:12;;;;;;;2.05;0.80;;;;;;;22.48;40.55;101331.31;5036157;28;20061;-58
2022/07/24 09:46:00;;;;;;;1.35;0.88;;;;;;;22.67;40.51;101339.25;5031830;28;20056;-59
2022/07/24 09:48:32;;;;;;;2.00;0.88;;;;;;;22.77;40.20;101343.69;5032197;28;20057;-59
2022/07/24 09:51:05;;;;;;;2.47;1.00;;;;;;;22.74;40.22;101350.22;5033399;28;20056;-59
2022/07/24 09:53:37;;;;;;;0.93;0.63;;;;;;;22.78;40.87;101342.69;5034682;28;20413;-58
2022/07/24 09:56:13;;;;;;;1.42;0.90;;;;;;;23.02;40.34;101334.09;5029357;28;20057;-59
2022/07/24 09:58:44;;;;;;;3.28;0.80;;;;;;;23.12;40.37;101348.25;5034805;28;20048;-58
2022/07/24 10:01:13;;;;;;;4.63;1.10;;;;;;;23.16;40.11;101329.00;5034287;28;20049;-57
2022/07/24 10:03:43;;;;;;;1.67;0.95;;;;;;;23.17;40.07;101333.38;5036862;28;20144;-58
2022/07/24 10:06:17;;;;;;;2.58;1.10;;;;;;;23.27;38.81;101330.59;5035550;28;20064;-58
2022/07/24 10:08:46;;;;;;;1.20;0.80;;;;;;;23.29;38.16;101333.97;5037801;28;20068;-58
2022/07/24 10:11:14;;;;;;;2.63;0.90;;;;;;;23.25;38.50;101333.44;5031311;28;20045;-57
2022/07/24 10:13:42;;;;;;;1.42;0.90;;;;;;;23.46;38.75;101326.84;5023459;28;20080;-60
2022/07/24 10:16:12;;;;;;;1.10;0.80;;;;;;;23.48;38.74;101328.41;5033624;28;20049;-57
2022/07/24 10:18:39;;;;;;;1.65;0.90;;;;;;;23.37;39.25;101319.75;5033418;28;20175;-59
2022/07/24 10:21:10;;;;;;;5.43;1.17;;;;;;;23.43;38.60;101321.81;5027557;28;20049;-55
2022/07/24 10:23:50;;;;;;;1.27;0.93;;;;;;;23.52;38.95;101309.28;5033954;28;20308;-59
2022/07/24 10:26:31;;;;;;;3.42;1.10;;;;;;;23.49;39.44;101319.34;5028314;28;20429;-55
2022/07/24 10:29:10;;;;;;;1.88;0.88;;;;;;;23.42;39.34;101317.44;5051511;28;20058;-59
2022/07/24 10:31:41;;;;;;;1.55;0.90;;;;;;;23.46;39.52;101308.03;5032894;28;20068;-59
2022/07/24 10:34:20;;;;;;;2.40;1.10;;;;;;;23.54;39.40;101309.94;5033553;28;20080;-58
2022/07/24 10:37:28;;;;;;;3.13;1.48;;;;;;;23.64;39.36;101310.69;5050867;28;20060;-57
2022/07/24 10:40:12;;;;;;;2.28;0.90;;;;;;;23.82;39.14;101291.81;5052359;28;20103;-58
2022/07/24 10:43:05;;;;;;;1.08;0.80;;;;;;;24.24;39.36;101299.91;5047141;28;20059;-58
2022/07/24 10:45:33;;;;;;;7.35;1.60;;;;;;;24.23;38.05;101303.63;5029486;28;20057;-55
2022/07/24 10:48:25;;;;;;;4.68;1.48;;;;;;;24.38;38.17;101303.88;5032174;28;20065;-54
2022/07/24 10:50:59;;;;;;;2.47;1.35;;;;;;;24.42;38.00;101295.28;5025870;28;20406;-58
2022/07/24 10:53:29;;;;;;;3.78;1.35;;;;;;;24.37;37.78;101307.56;5030046;28;20050;-57
2022/07/24 10:56:34;;;;;;;1.92;1.13;;;;;;;24.52;37.86;101305.91;5032467;28;20068;-55
2022/07/24 10:59:11;;;;;;;2.05;1.55;;;;;;;24.81;38.06;101300.09;5001030;28;20129;-59
2022/07/24 11:01:47;;;;;;;2.42;1.13;;;;;;;25.06;36.72;101300.91;5030747;28;20049;-57
2022/07/24 11:04:17;;;;;;;3.42;1.40;;;;;;;24.81;36.75;101302.78;5033103;28;20489;-58
2022/07/24 11:06:45;;;;;;;2.05;1.38;;;;;;;24.95;36.39;101302.13;5027144;28;20053;-56
2022/07/24 11:09:12;;;;;;;2.35;1.38;;;;;;;25.05;35.94;101301.94;5036274;28;20056;-57
2022/07/24 11:12:01;;;;;;;2.35;1.38;;;;;;;25.21;36.48;101298.41;5026011;28;20053;-58
2022/07/24 11:14:38;;;;;;;3.10;1.52;;;;;;;25.37;36.60;101286.78;5037109;28;20390;-58
2022/07/24 11:17:40;;;;;;;2.65;1.35;;;;;;;25.58;36.47;101297.88;5032587;28;20064;-55
2022/07/24 11:20:10;;;;;;;3.05;1.52;;;;;;;25.82;36.38;101288.88;5022697;28;20058;-55
2022/07/24 11:22:39;;;;;;;2.55;1.65;;;;;;;26.05;35.71;101290.81;5035041;28;20048;-57
2022/07/24 11:25:08;;;;;;;3.08;1.30;;;;;;;26.20;35.50;101294.47;5025656;28;20521;-57
2022/07/24 11:27:47;;;;;;;4.35;1.50;;;;;;;26.13;35.15;101290.81;5030983;28;20058;-59
2022/07/24 11:30:15;;;;;;;2.08;1.40;;;;;;;26.01;34.75;101299.25;5034318;28;20057;-58
2022/07/24 11:32:43;;;;;;;2.97;1.33;;;;;;;25.98;35.16;101287.97;5037174;28;20049;-57
2022/07/24 11:35:10;;;;;;;3.47;1.33;;;;;;;26.13;34.93;101288.94;5036375;28;20209;-58
2022/07/24 11:37:38;;;;;;;2.15;1.40;;;;;;;26.22;34.87;101279.78;5033511;28;20064;-57
2022/07/24 11:40:07;;;;;;;2.20;1.48;;;;;;;26.48;34.70;101279.50;5026645;28;20056;-59